sensor_id;sensor_type;location;lat;lon;timestamp;pressure;altitude;pressure_sealevel;temperature;humidity
20023;BME280;10172;42.054;24.546;2023-09-19T00:01:06;98567.97;;;14.20;100.00
20023;BME280;10172;42.054;24.546;2023-09-19T00:03:35;98545.47;;;14.12;100.00
20023;BME280;10172;42.054;24.546;2023-09-19T00:06:04;98565.38;;;14.54;100.00
20023;BME280;10172;42.054;24.546;2023-09-19T00:08:30;98553.81;;;14.64;100.00
20023;BME280;10172;42.054;24.546;2023-09-19T00:10:56;98551.47;;;15.25;100.00
20023;BME280;10172;42.054;24.546;2023-09-19T00:13:29;98557.06;;;15.33;100.00
20023;BME280;10172;42.054;24.546;2023-09-19T00:15:56;98522.75;;;14.84;100.00
20023;BME280;10172;42.054;24.546;2023-09-19T00:18:24;98523.41;;;14.43;100.00
20023;BME280;10172;42.054;24.546;2023-09-19T00:20:57;98540.50;;;14.74;100.00
20023;BME280;10172;42.054;24.546;2023-09-19T00:23:22;98550.88;;;14.34;100.00
20023;BME280;10172;42.054;24.546;2023-09-19T00:25:48;98558.06;;;14.67;100.00
20023;BME280;10172;42.054;24.546;2023-09-19T00:28:15;98530.56;;;14.31;100.00
20023;BME280;10172;42.054;24.546;2023-09-19T00:30:42;98554.91;;;14.40;100.00
20023;BME280;10172;42.054;24.546;2023-09-19T00:33:08;98558.53;;;14.61;100.00
20023;BME280;10172;42.054;24.546;2023-09-19T00:35:33;98537.34;;;14.24;100.00
20023;BME280;10172;42.054;24.546;2023-09-19T00:37:59;98529.53;;;14.10;100.00
20023;BME280;10172;42.054;24.546;2023-09-19T00:40:24;98551.13;;;14.53;100.00
20023;BME280;10172;42.054;24.546;2023-09-19T00:42:51;98521.31;;;14.35;100.00
20023;BME280;10172;42.054;24.546;2023-09-19T00:45:18;98543.41;;;14.26;100.00
20023;BME280;10172;42.054;24.546;2023-09-19T00:47:45;98546.56;;;14.20;100.00
20023;BME280;10172;42.054;24.546;2023-09-19T00:50:11;98545.63;;;14.66;100.00
20023;BME280;10172;42.054;24.546;2023-09-19T00:52:40;98538.94;;;14.27;100.00
20023;BME280;10172;42.054;24.546;2023-09-19T00:55:08;98546.38;;;14.68;100.00
20023;BME280;10172;42.054;24.546;2023-09-19T00:57:35;98543.81;;;14.55;100.00
20023;BME280;10172;42.054;24.546;2023-09-19T01:00:02;98502.22;;;14.51;100.00
20023;BME280;10172;42.054;24.546;2023-09-19T01:02:33;98527.84;;;14.20;100.00
20023;BME280;10172;42.054;24.546;2023-09-19T01:04:59;98542.72;;;14.35;100.00
20023;BME280;10172;42.054;24.546;2023-09-19T01:07:26;98538.84;;;14.40;100.00
20023;BME280;10172;42.054;24.546;2023-09-19T01:09:55;98529.41;;;14.12;100.00
20023;BME280;10172;42.054;24.546;2023-09-19T01:15:32;98523.69;;;14.05;100.00
20023;BME280;10172;42.054;24.546;2023-09-19T01:26:10;98513.03;;;14.16;100.00
20023;BME280;10172;42.054;24.546;2023-09-19T01:31:28;98502.19;;;14.18;100.00
20023;BME280;10172;42.054;24.546;2023-09-19T01:34:01;98532.88;;;14.36;100.00
20023;BME280;10172;42.054;24.546;2023-09-19T01:36:35;98525.88;;;13.89;100.00
20023;BME280;10172;42.054;24.546;2023-09-19T01:39:04;98528.47;;;14.24;100.00
20023;BME280;10172;42.054;24.546;2023-09-19T01:44:36;98530.81;;;14.40;100.00
20023;BME280;10172;42.054;24.546;2023-09-19T01:47:09;98535.03;;;14.98;100.00
20023;BME280;10172;42.054;24.546;2023-09-19T01:49:47;98526.91;;;14.32;100.00
20023;BME280;10172;42.054;24.546;2023-09-19T01:52:15;98513.28;;;14.35;100.00
20023;BME280;10172;42.054;24.546;2023-09-19T01:54:52;98527.25;;;14.72;100.00
20023;BME280;10172;42.054;24.546;2023-09-19T01:57:35;98528.22;;;14.60;100.00
20023;BME280;10172;42.054;24.546;2023-09-19T02:00:07;98515.91;;;13.91;100.00
20023;BME280;10172;42.054;24.546;2023-09-19T02:02:36;98514.22;;;14.12;100.00
20023;BME280;10172;42.054;24.546;2023-09-19T02:05:03;98521.47;;;13.88;100.00
20023;BME280;10172;42.054;24.546;2023-09-19T02:07:29;98522.84;;;14.05;100.00
20023;BME280;10172;42.054;24.546;2023-09-19T02:09:57;98528.38;;;14.36;100.00
20023;BME280;10172;42.054;24.546;2023-09-19T02:12:24;98533.91;;;14.00;100.00
20023;BME280;10172;42.054;24.546;2023-09-19T02:14:50;98512.28;;;13.57;100.00
20023;BME280;10172;42.054;24.546;2023-09-19T02:17:15;98516.75;;;13.46;100.00
20023;BME280;10172;42.054;24.546;2023-09-19T02:19:41;98504.13;;;13.48;100.00
20023;BME280;10172;42.054;24.546;2023-09-19T02:22:07;98499.56;;;13.72;100.00
20023;BME280;10172;42.054;24.546;2023-09-19T02:24:33;98491.34;;;13.97;100.00
20023;BME280;10172;42.054;24.546;2023-09-19T02:26:58;98495.63;;;14.33;100.00
20023;BME280;10172;42.054;24.546;2023-09-19T02:29:25;98516.38;;;13.50;100.00
20023;BME280;10172;42.054;24.546;2023-09-19T02:31:52;98509.72;;;13.56;100.00
20023;BME280;10172;42.054;24.546;2023-09-19T02:34:18;98513.66;;;13.74;100.00
20023;BME280;10172;42.054;24.546;2023-09-19T02:36:44;98501.88;;;13.76;100.00
20023;BME280;10172;42.054;24.546;2023-09-19T02:39:10;98490.28;;;13.54;100.00
20023;BME280;10172;42.054;24.546;2023-09-19T02:41:36;98495.06;;;13.27;100.00
20023;BME280;10172;42.054;24.546;2023-09-19T02:44:02;98506.97;;;13.68;100.00
20023;BME280;10172;42.054;24.546;2023-09-19T02:46:27;98515.47;;;14.64;100.00
20023;BME280;10172;42.054;24.546;2023-09-19T02:48:53;98504.44;;;15.00;100.00
20023;BME280;10172;42.054;24.546;2023-09-19T02:51:20;98525.44;;;15.59;100.00
20023;BME280;10172;42.054;24.546;2023-09-19T02:53:45;98522.31;;;15.53;100.00
20023;BME280;10172;42.054;24.546;2023-09-19T02:56:12;98503.66;;;14.33;100.00
20023;BME280;10172;42.054;24.546;2023-09-19T02:58:39;98499.63;;;14.61;100.00
20023;BME280;10172;42.054;24.546;2023-09-19T03:01:10;98500.47;;;14.83;100.00
20023;BME280;10172;42.054;24.546;2023-09-19T03:03:39;98497.59;;;14.53;100.00
20023;BME280;10172;42.054;24.546;2023-09-19T03:06:06;98514.34;;;14.11;100.00
20023;BME280;10172;42.054;24.546;2023-09-19T03:08:34;98511.53;;;14.01;100.00
20023;BME280;10172;42.054;24.546;2023-09-19T03:11:03;98520.28;;;13.57;100.00
20023;BME280;10172;42.054;24.546;2023-09-19T03:13:31;98510.63;;;13.67;100.00
20023;BME280;10172;42.054;24.546;2023-09-19T03:15:57;98520.00;;;13.49;100.00
20023;BME280;10172;42.054;24.546;2023-09-19T03:18:24;98517.75;;;13.56;100.00
20023;BME280;10172;42.054;24.546;2023-09-19T03:20:55;98497.63;;;13.39;100.00
20023;BME280;10172;42.054;24.546;2023-09-19T03:23:21;98514.41;;;13.87;100.00
20023;BME280;10172;42.054;24.546;2023-09-19T03:25:47;98517.13;;;14.09;100.00
20023;BME280;10172;42.054;24.546;2023-09-19T03:28:12;98515.19;;;14.22;100.00
20023;BME280;10172;42.054;24.546;2023-09-19T03:30:38;98517.50;;;14.16;100.00
20023;BME280;10172;42.054;24.546;2023-09-19T03:33:04;98515.22;;;14.67;100.00
20023;BME280;10172;42.054;24.546;2023-09-19T03:35:30;98508.25;;;14.31;100.00
20023;BME280;10172;42.054;24.546;2023-09-19T03:37:56;98497.91;;;13.93;100.00
20023;BME280;10172;42.054;24.546;2023-09-19T03:40:21;98501.28;;;13.73;100.00
20023;BME280;10172;42.054;24.546;2023-09-19T03:42:48;98490.13;;;13.90;100.00
20023;BME280;10172;42.054;24.546;2023-09-19T03:45:14;98477.88;;;12.94;100.00
20023;BME280;10172;42.054;24.546;2023-09-19T03:47:41;98505.94;;;13.00;100.00
20023;BME280;10172;42.054;24.546;2023-09-19T03:50:06;98501.44;;;13.00;100.00
20023;BME280;10172;42.054;24.546;2023-09-19T03:52:33;98501.88;;;13.07;100.00
20023;BME280;10172;42.054;24.546;2023-09-19T03:54:59;98480.59;;;13.05;100.00
20023;BME280;10172;42.054;24.546;2023-09-19T03:57:25;98504.84;;;13.50;100.00
20023;BME280;10172;42.054;24.546;2023-09-19T03:59:51;98484.41;;;13.38;100.00
20023;BME280;10172;42.054;24.546;2023-09-19T04:02:18;98509.13;;;13.05;100.00
20023;BME280;10172;42.054;24.546;2023-09-19T04:04:51;98505.53;;;12.93;100.00
20023;BME280;10172;42.054;24.546;2023-09-19T04:07:18;98512.50;;;13.19;100.00
20023;BME280;10172;42.054;24.546;2023-09-19T04:09:44;98490.53;;;13.16;100.00
20023;BME280;10172;42.054;24.546;2023-09-19T04:12:11;98521.50;;;13.18;100.00
20023;BME280;10172;42.054;24.546;2023-09-19T04:14:37;98527.69;;;13.19;100.00
20023;BME280;10172;42.054;24.546;2023-09-19T04:17:03;98518.06;;;13.16;100.00
20023;BME280;10172;42.054;24.546;2023-09-19T04:19:30;98522.72;;;13.26;100.00
20023;BME280;10172;42.054;24.546;2023-09-19T04:21:55;98497.06;;;12.99;100.00
20023;BME280;10172;42.054;24.546;2023-09-19T04:24:21;98514.28;;;12.95;100.00
20023;BME280;10172;42.054;24.546;2023-09-19T04:26:46;98498.03;;;12.98;100.00
20023;BME280;10172;42.054;24.546;2023-09-19T04:29:12;98512.72;;;13.16;100.00
20023;BME280;10172;42.054;24.546;2023-09-19T04:31:39;98505.25;;;13.22;100.00
20023;BME280;10172;42.054;24.546;2023-09-19T04:34:05;98501.31;;;13.14;100.00
20023;BME280;10172;42.054;24.546;2023-09-19T04:36:31;98520.59;;;13.42;100.00
20023;BME280;10172;42.054;24.546;2023-09-19T04:38:56;98520.56;;;13.31;100.00
20023;BME280;10172;42.054;24.546;2023-09-19T04:41:21;98510.75;;;13.77;100.00
20023;BME280;10172;42.054;24.546;2023-09-19T04:43:47;98493.59;;;13.68;100.00
20023;BME280;10172;42.054;24.546;2023-09-19T04:46:14;98501.03;;;13.41;100.00
20023;BME280;10172;42.054;24.546;2023-09-19T04:48:40;98494.63;;;14.23;100.00
20023;BME280;10172;42.054;24.546;2023-09-19T04:51:06;98501.19;;;14.74;100.00
20023;BME280;10172;42.054;24.546;2023-09-19T04:53:32;98510.34;;;14.61;100.00
20023;BME280;10172;42.054;24.546;2023-09-19T04:55:57;98513.25;;;14.69;100.00
20023;BME280;10172;42.054;24.546;2023-09-19T04:58:23;98491.06;;;13.78;100.00
20023;BME280;10172;42.054;24.546;2023-09-19T05:00:48;98509.22;;;13.51;100.00
20023;BME280;10172;42.054;24.546;2023-09-19T05:03:16;98507.00;;;13.79;100.00
20023;BME280;10172;42.054;24.546;2023-09-19T05:05:42;98507.56;;;13.61;100.00
20023;BME280;10172;42.054;24.546;2023-09-19T05:08:08;98497.22;;;13.56;100.00
20023;BME280;10172;42.054;24.546;2023-09-19T05:10:35;98505.84;;;13.60;100.00
20023;BME280;10172;42.054;24.546;2023-09-19T05:13:06;98512.28;;;14.25;100.00
20023;BME280;10172;42.054;24.546;2023-09-19T05:15:33;98514.19;;;13.90;100.00
20023;BME280;10172;42.054;24.546;2023-09-19T05:17:58;98521.63;;;14.20;100.00
20023;BME280;10172;42.054;24.546;2023-09-19T05:20:25;98514.84;;;14.16;100.00
20023;BME280;10172;42.054;24.546;2023-09-19T05:23:04;98519.84;;;14.54;100.00
20023;BME280;10172;42.054;24.546;2023-09-19T05:25:38;98503.66;;;14.66;100.00
20023;BME280;10172;42.054;24.546;2023-09-19T05:28:08;98523.94;;;14.91;100.00
20023;BME280;10172;42.054;24.546;2023-09-19T05:30:36;98490.19;;;15.31;100.00
20023;BME280;10172;42.054;24.546;2023-09-19T05:33:02;98525.44;;;15.79;100.00
20023;BME280;10172;42.054;24.546;2023-09-19T05:35:29;98525.66;;;15.87;100.00
20023;BME280;10172;42.054;24.546;2023-09-19T05:37:55;98526.97;;;15.93;100.00
20023;BME280;10172;42.054;24.546;2023-09-19T05:40:21;98540.63;;;15.90;100.00
20023;BME280;10172;42.054;24.546;2023-09-19T05:42:46;98536.88;;;16.23;100.00
20023;BME280;10172;42.054;24.546;2023-09-19T05:45:13;98531.28;;;16.05;100.00
20023;BME280;10172;42.054;24.546;2023-09-19T05:47:42;98505.00;;;16.29;100.00
20023;BME280;10172;42.054;24.546;2023-09-19T05:50:09;98526.06;;;16.94;100.00
20023;BME280;10172;42.054;24.546;2023-09-19T05:52:35;98495.69;;;17.32;100.00
20023;BME280;10172;42.054;24.546;2023-09-19T05:55:05;98526.84;;;18.02;100.00
20023;BME280;10172;42.054;24.546;2023-09-19T05:57:35;98534.38;;;17.88;100.00
20023;BME280;10172;42.054;24.546;2023-09-19T06:00:01;98518.72;;;18.21;100.00
20023;BME280;10172;42.054;24.546;2023-09-19T06:02:27;98511.44;;;18.31;100.00
20023;BME280;10172;42.054;24.546;2023-09-19T06:04:55;98527.84;;;18.57;100.00
20023;BME280;10172;42.054;24.546;2023-09-19T06:07:23;98508.84;;;18.85;100.00
20023;BME280;10172;42.054;24.546;2023-09-19T06:09:52;98508.75;;;18.77;100.00
20023;BME280;10172;42.054;24.546;2023-09-19T06:12:19;98520.16;;;19.16;100.00
20023;BME280;10172;42.054;24.546;2023-09-19T06:14:44;98523.16;;;19.31;100.00
20023;BME280;10172;42.054;24.546;2023-09-19T06:17:10;98516.09;;;19.30;100.00
20023;BME280;10172;42.054;24.546;2023-09-19T06:19:35;98521.13;;;19.60;100.00
20023;BME280;10172;42.054;24.546;2023-09-19T06:22:01;98507.53;;;19.87;100.00
20023;BME280;10172;42.054;24.546;2023-09-19T06:24:27;98518.09;;;19.98;100.00
20023;BME280;10172;42.054;24.546;2023-09-19T06:26:52;98522.25;;;20.36;100.00
20023;BME280;10172;42.054;24.546;2023-09-19T06:29:18;98507.31;;;20.50;100.00
20023;BME280;10172;42.054;24.546;2023-09-19T06:31:43;98509.97;;;20.67;100.00
20023;BME280;10172;42.054;24.546;2023-09-19T06:34:10;98526.84;;;21.03;100.00
20023;BME280;10172;42.054;24.546;2023-09-19T06:36:35;98521.34;;;21.21;100.00
20023;BME280;10172;42.054;24.546;2023-09-19T06:39:01;98515.00;;;21.62;100.00
20023;BME280;10172;42.054;24.546;2023-09-19T06:41:29;98517.19;;;21.67;100.00
20023;BME280;10172;42.054;24.546;2023-09-19T06:43:55;98511.94;;;21.41;100.00
20023;BME280;10172;42.054;24.546;2023-09-19T06:46:20;98519.88;;;21.51;100.00
20023;BME280;10172;42.054;24.546;2023-09-19T06:48:45;98511.91;;;21.33;100.00
20023;BME280;10172;42.054;24.546;2023-09-19T06:51:13;98512.28;;;21.04;100.00
20023;BME280;10172;42.054;24.546;2023-09-19T06:53:41;98515.78;;;21.38;100.00
20023;BME280;10172;42.054;24.546;2023-09-19T06:56:07;98527.66;;;21.45;100.00
20023;BME280;10172;42.054;24.546;2023-09-19T06:58:32;98519.22;;;21.57;100.00
20023;BME280;10172;42.054;24.546;2023-09-19T07:00:58;98504.50;;;21.43;100.00
20023;BME280;10172;42.054;24.546;2023-09-19T07:03:23;98523.97;;;21.63;100.00
20023;BME280;10172;42.054;24.546;2023-09-19T07:05:51;98516.53;;;21.65;100.00
20023;BME280;10172;42.054;24.546;2023-09-19T07:08:18;98510.81;;;22.00;100.00
20023;BME280;10172;42.054;24.546;2023-09-19T07:10:44;98500.59;;;22.42;99.84
20023;BME280;10172;42.054;24.546;2023-09-19T07:13:17;98480.97;;;21.35;100.00
20023;BME280;10172;42.054;24.546;2023-09-19T07:15:44;98504.69;;;22.06;100.00
20023;BME280;10172;42.054;24.546;2023-09-19T07:18:18;98508.00;;;22.73;98.19
20023;BME280;10172;42.054;24.546;2023-09-19T07:20:45;98512.59;;;23.11;94.86
20023;BME280;10172;42.054;24.546;2023-09-19T07:23:20;98507.66;;;22.76;94.59
20023;BME280;10172;42.054;24.546;2023-09-19T07:25:47;98488.28;;;22.16;96.95
20023;BME280;10172;42.054;24.546;2023-09-19T07:28:14;98481.66;;;22.26;95.50
20023;BME280;10172;42.054;24.546;2023-09-19T07:30:39;98495.19;;;22.26;96.33
20023;BME280;10172;42.054;24.546;2023-09-19T07:33:06;98494.53;;;22.32;97.38
20023;BME280;10172;42.054;24.546;2023-09-19T07:35:32;98502.44;;;22.50;92.07
20023;BME280;10172;42.054;24.546;2023-09-19T07:37:58;98492.00;;;22.86;89.60
20023;BME280;10172;42.054;24.546;2023-09-19T07:40:27;98492.47;;;22.97;89.04
20023;BME280;10172;42.054;24.546;2023-09-19T07:42:57;98474.09;;;22.69;89.85
20023;BME280;10172;42.054;24.546;2023-09-19T07:45:29;98491.38;;;23.45;87.43
20023;BME280;10172;42.054;24.546;2023-09-19T07:47:58;98481.25;;;23.31;84.55
20023;BME280;10172;42.054;24.546;2023-09-19T07:50:33;98483.91;;;23.16;86.99
20023;BME280;10172;42.054;24.546;2023-09-19T07:52:58;98482.84;;;23.71;85.29
20023;BME280;10172;42.054;24.546;2023-09-19T07:55:24;98455.69;;;23.71;83.71
20023;BME280;10172;42.054;24.546;2023-09-19T07:57:51;98453.88;;;23.63;83.65
20023;BME280;10172;42.054;24.546;2023-09-19T08:00:17;98468.81;;;23.67;83.16
20023;BME280;10172;42.054;24.546;2023-09-19T08:02:43;98465.09;;;21.65;97.38
20023;BME280;10172;42.054;24.546;2023-09-19T08:05:10;98456.16;;;22.68;92.22
20023;BME280;10172;42.054;24.546;2023-09-19T08:07:37;98461.50;;;23.45;87.93
20023;BME280;10172;42.054;24.546;2023-09-19T08:10:07;98456.72;;;23.47;86.68
20023;BME280;10172;42.054;24.546;2023-09-19T08:12:42;98458.81;;;23.83;84.39
20023;BME280;10172;42.054;24.546;2023-09-19T08:15:21;98452.59;;;23.97;85.32
20023;BME280;10172;42.054;24.546;2023-09-19T08:17:46;98460.53;;;23.84;85.11
20023;BME280;10172;42.054;24.546;2023-09-19T08:20:14;98459.22;;;23.26;86.11
20023;BME280;10172;42.054;24.546;2023-09-19T08:22:53;98452.03;;;23.33;89.28
20023;BME280;10172;42.054;24.546;2023-09-19T08:25:20;98454.00;;;23.47;88.83
20023;BME280;10172;42.054;24.546;2023-09-19T08:27:47;98450.75;;;23.74;86.06
20023;BME280;10172;42.054;24.546;2023-09-19T08:30:20;98432.56;;;23.98;85.03
20023;BME280;10172;42.054;24.546;2023-09-19T08:32:49;98437.41;;;24.25;84.51
20023;BME280;10172;42.054;24.546;2023-09-19T08:35:15;98447.88;;;24.28;84.46
20023;BME280;10172;42.054;24.546;2023-09-19T08:37:42;98434.22;;;23.61;86.47
20023;BME280;10172;42.054;24.546;2023-09-19T08:40:08;98436.34;;;23.51;87.72
20023;BME280;10172;42.054;24.546;2023-09-19T08:42:54;98428.56;;;24.52;83.12
20023;BME280;10172;42.054;24.546;2023-09-19T08:45:21;98410.59;;;24.51;83.67
20023;BME280;10172;42.054;24.546;2023-09-19T08:48:24;98430.53;;;24.73;82.12
20023;BME280;10172;42.054;24.546;2023-09-19T08:51:00;98430.09;;;23.88;86.92
20023;BME280;10172;42.054;24.546;2023-09-19T08:53:42;98430.09;;;24.55;85.05
20023;BME280;10172;42.054;24.546;2023-09-19T08:56:09;98410.41;;;24.38;84.69
20023;BME280;10172;42.054;24.546;2023-09-19T08:58:43;98437.22;;;24.41;83.74
20023;BME280;10172;42.054;24.546;2023-09-19T09:01:09;98423.97;;;24.82;82.59
20023;BME280;10172;42.054;24.546;2023-09-19T09:03:38;98432.50;;;24.93;80.35
20023;BME280;10172;42.054;24.546;2023-09-19T09:06:07;98409.84;;;24.13;85.24
20023;BME280;10172;42.054;24.546;2023-09-19T09:08:36;98402.97;;;24.61;84.38
20023;BME280;10172;42.054;24.546;2023-09-19T09:11:02;98418.38;;;25.19;81.07
20023;BME280;10172;42.054;24.546;2023-09-19T09:13:28;98417.53;;;25.82;77.24
20023;BME280;10172;42.054;24.546;2023-09-19T09:15:54;98411.97;;;25.69;75.38
20023;BME280;10172;42.054;24.546;2023-09-19T09:18:19;98391.75;;;25.57;76.58
20023;BME280;10172;42.054;24.546;2023-09-19T09:20:45;98394.44;;;25.78;75.26
20023;BME280;10172;42.054;24.546;2023-09-19T09:23:12;98387.19;;;25.64;75.48
20023;BME280;10172;42.054;24.546;2023-09-19T09:28:27;98376.69;;;24.98;82.82
20023;BME280;10172;42.054;24.546;2023-09-19T09:30:54;98390.94;;;25.84;74.42
20023;BME280;10172;42.054;24.546;2023-09-19T09:33:20;98386.63;;;25.96;75.02
20023;BME280;10172;42.054;24.546;2023-09-19T09:35:56;98387.09;;;25.51;77.76
20023;BME280;10172;42.054;24.546;2023-09-19T09:38:25;98381.00;;;25.49;77.27
20023;BME280;10172;42.054;24.546;2023-09-19T09:40:54;98353.81;;;25.83;76.19
20023;BME280;10172;42.054;24.546;2023-09-19T09:43:37;98377.34;;;26.53;71.69
20023;BME280;10172;42.054;24.546;2023-09-19T09:46:18;98356.41;;;26.60;72.40
20023;BME280;10172;42.054;24.546;2023-09-19T09:48:47;98377.78;;;26.56;70.29
20023;BME280;10172;42.054;24.546;2023-09-19T09:51:33;98369.63;;;26.63;71.22
20023;BME280;10172;42.054;24.546;2023-09-19T09:54:12;98367.19;;;24.93;77.59
20023;BME280;10172;42.054;24.546;2023-09-19T09:56:57;98361.81;;;24.79;81.95
20023;BME280;10172;42.054;24.546;2023-09-19T10:02:17;98351.00;;;25.70;76.02
20023;BME280;10172;42.054;24.546;2023-09-19T10:04:53;98356.41;;;25.91;76.38
20023;BME280;10172;42.054;24.546;2023-09-19T10:07:35;98353.16;;;26.09;74.61
20023;BME280;10172;42.054;24.546;2023-09-19T10:10:06;98334.38;;;26.61;72.17
20023;BME280;10172;42.054;24.546;2023-09-19T10:12:45;98353.28;;;27.17;67.71
20023;BME280;10172;42.054;24.546;2023-09-19T10:15:11;98360.13;;;26.52;69.99
20023;BME280;10172;42.054;24.546;2023-09-19T10:17:43;98342.41;;;26.76;69.44
20023;BME280;10172;42.054;24.546;2023-09-19T10:20:12;98362.19;;;26.85;69.28
20023;BME280;10172;42.054;24.546;2023-09-19T10:22:48;98326.47;;;25.70;74.02
20023;BME280;10172;42.054;24.546;2023-09-19T10:25:25;98337.78;;;26.29;73.21
20023;BME280;10172;42.054;24.546;2023-09-19T10:27:54;98322.03;;;26.72;70.79
20023;BME280;10172;42.054;24.546;2023-09-19T10:30:22;98333.91;;;27.05;68.75
20023;BME280;10172;42.054;24.546;2023-09-19T10:32:57;98317.34;;;27.26;66.78
20023;BME280;10172;42.054;24.546;2023-09-19T10:35:25;98310.00;;;27.33;66.15
20023;BME280;10172;42.054;24.546;2023-09-19T10:37:51;98320.28;;;26.51;70.21
20023;BME280;10172;42.054;24.546;2023-09-19T10:40:20;98297.22;;;27.41;66.75
20023;BME280;10172;42.054;24.546;2023-09-19T10:42:51;98308.75;;;28.08;62.61
20023;BME280;10172;42.054;24.546;2023-09-19T10:45:18;98317.81;;;27.63;64.20
20023;BME280;10172;42.054;24.546;2023-09-19T10:47:45;98312.56;;;27.68;65.08
20023;BME280;10172;42.054;24.546;2023-09-19T10:50:20;98282.63;;;26.81;66.60
20023;BME280;10172;42.054;24.546;2023-09-19T10:52:50;98301.53;;;26.96;67.87
20023;BME280;10172;42.054;24.546;2023-09-19T10:55:25;98285.59;;;26.99;69.93
20023;BME280;10172;42.054;24.546;2023-09-19T10:57:50;98283.97;;;27.64;66.21
20023;BME280;10172;42.054;24.546;2023-09-19T11:00:17;98282.06;;;27.84;64.43
20023;BME280;10172;42.054;24.546;2023-09-19T11:06:09;98283.94;;;27.77;61.81
20023;BME280;10172;42.054;24.546;2023-09-19T11:08:54;98281.00;;;27.33;66.19
20023;BME280;10172;42.054;24.546;2023-09-19T11:11:49;98290.19;;;26.79;68.72
20023;BME280;10172;42.054;24.546;2023-09-19T11:30:42;98246.53;;;27.31;66.15
20023;BME280;10172;42.054;24.546;2023-09-19T11:33:23;98252.03;;;27.71;62.42
20023;BME280;10172;42.054;24.546;2023-09-19T11:36:07;98232.88;;;27.58;64.54
20023;BME280;10172;42.054;24.546;2023-09-19T11:46:30;98239.06;;;28.17;61.16
20023;BME280;10172;42.054;24.546;2023-09-19T11:49:05;98226.66;;;28.15;62.15
20023;BME280;10172;42.054;24.546;2023-09-19T11:51:42;98221.63;;;28.12;60.83
20023;BME280;10172;42.054;24.546;2023-09-19T11:54:11;98213.06;;;27.82;61.33
20023;BME280;10172;42.054;24.546;2023-09-19T11:56:58;98204.94;;;27.23;63.32
20023;BME280;10172;42.054;24.546;2023-09-19T11:59:26;98221.22;;;26.51;66.87
20023;BME280;10172;42.054;24.546;2023-09-19T12:07:21;98216.94;;;26.89;68.32
20023;BME280;10172;42.054;24.546;2023-09-19T12:10:04;98188.81;;;27.41;64.86
20023;BME280;10172;42.054;24.546;2023-09-19T12:12:30;98204.06;;;27.68;64.30
20023;BME280;10172;42.054;24.546;2023-09-19T12:14:58;98215.03;;;28.26;59.78
20023;BME280;10172;42.054;24.546;2023-09-19T12:17:39;98212.38;;;28.13;60.90
20023;BME280;10172;42.054;24.546;2023-09-19T12:20:07;98209.47;;;27.95;62.90
20023;BME280;10172;42.054;24.546;2023-09-19T12:22:40;98201.84;;;28.16;61.38
20023;BME280;10172;42.054;24.546;2023-09-19T12:25:06;98206.00;;;28.70;59.05
20023;BME280;10172;42.054;24.546;2023-09-19T12:27:41;98200.97;;;28.67;57.57
20023;BME280;10172;42.054;24.546;2023-09-19T12:30:09;98201.25;;;28.52;57.85
20023;BME280;10172;42.054;24.546;2023-09-19T12:32:35;98192.75;;;28.67;57.43
20023;BME280;10172;42.054;24.546;2023-09-19T12:35:01;98186.25;;;28.92;58.30
20023;BME280;10172;42.054;24.546;2023-09-19T12:37:32;98177.22;;;28.92;57.34
20023;BME280;10172;42.054;24.546;2023-09-19T12:40:08;98195.22;;;29.31;56.20
20023;BME280;10172;42.054;24.546;2023-09-19T12:42:46;98180.16;;;29.22;54.97
20023;BME280;10172;42.054;24.546;2023-09-19T12:45:13;98180.50;;;28.76;56.89
20023;BME280;10172;42.054;24.546;2023-09-19T12:47:40;98175.22;;;29.30;55.86
20023;BME280;10172;42.054;24.546;2023-09-19T12:50:15;98171.38;;;29.74;52.78
20023;BME280;10172;42.054;24.546;2023-09-19T12:52:49;98173.41;;;29.42;53.02
20023;BME280;10172;42.054;24.546;2023-09-19T12:55:22;98170.56;;;28.43;56.51
20023;BME280;10172;42.054;24.546;2023-09-19T13:00:37;98152.38;;;28.24;57.04
20023;BME280;10172;42.054;24.546;2023-09-19T13:03:32;98147.28;;;27.83;59.66
20023;BME280;10172;42.054;24.546;2023-09-19T13:06:03;98155.72;;;28.58;57.89
20023;BME280;10172;42.054;24.546;2023-09-19T13:08:37;98146.78;;;27.93;59.55
20023;BME280;10172;42.054;24.546;2023-09-19T13:13:32;98153.13;;;28.76;55.93
20023;BME280;10172;42.054;24.546;2023-09-19T13:15:58;98140.47;;;28.75;56.88
20023;BME280;10172;42.054;24.546;2023-09-19T13:18:26;98155.75;;;29.38;55.07
20023;BME280;10172;42.054;24.546;2023-09-19T13:21:12;98160.19;;;29.57;53.52
20023;BME280;10172;42.054;24.546;2023-09-19T13:23:42;98156.22;;;29.53;52.25
20023;BME280;10172;42.054;24.546;2023-09-19T13:26:09;98144.28;;;29.23;53.50
20023;BME280;10172;42.054;24.546;2023-09-19T13:28:35;98131.69;;;29.22;53.02
20023;BME280;10172;42.054;24.546;2023-09-19T13:31:01;98145.53;;;29.27;53.66
20023;BME280;10172;42.054;24.546;2023-09-19T13:33:26;98130.00;;;29.39;53.32
20023;BME280;10172;42.054;24.546;2023-09-19T13:35:52;98127.31;;;28.59;54.42
20023;BME280;10172;42.054;24.546;2023-09-19T13:38:18;98114.91;;;28.63;55.34
20023;BME280;10172;42.054;24.546;2023-09-19T13:40:47;98125.38;;;28.66;55.63
20023;BME280;10172;42.054;24.546;2023-09-19T13:43:13;98114.16;;;28.42;56.35
20023;BME280;10172;42.054;24.546;2023-09-19T13:45:39;98117.56;;;28.00;58.59
20023;BME280;10172;42.054;24.546;2023-09-19T13:48:07;98097.22;;;27.19;60.52
20023;BME280;10172;42.054;24.546;2023-09-19T13:50:34;98115.63;;;28.14;58.56
20023;BME280;10172;42.054;24.546;2023-09-19T13:53:01;98101.16;;;28.94;54.98
20023;BME280;10172;42.054;24.546;2023-09-19T13:55:27;98095.00;;;29.23;54.49